Time;durP1;ratioP1;P1;durP2;ratioP2;P2;SDS_P1;SDS_P2;PMS_P1;PMS_P2;Temp;Humidity;BMP_temperature;BMP_pressure;BME280_temperature;BME280_humidity;BME280_pressure;Samples;Min_cycle;Max_cycle;Signal;HPM_P1;HPM_P2
2021/09/06 00:01:45;;;;;;;14.55;11.10;;;;;;;10.47;100.00;102136.78;10458650;28;20080;-79
2021/09/06 00:06:47;;;;;;;16.75;11.05;;;;;;;10.53;100.00;102141.31;10457371;28;20555;-79
2021/09/06 00:11:49;;;;;;;19.75;11.63;;;;;;;10.56;100.00;102141.44;10456667;28;20053;-79
2021/09/06 00:16:51;;;;;;;14.98;11.85;;;;;;;10.59;100.00;102138.94;10457622;28;20631;-79
2021/09/06 00:21:52;;;;;;;18.02;11.80;;;;;;;10.52;100.00;102139.56;10460114;28;20056;-78
2021/09/06 00:26:54;;;;;;;14.27;11.88;;;;;;;10.38;100.00;102144.25;10445135;28;20050;-80
2021/09/06 00:31:56;;;;;;;16.70;11.43;;;;;;;10.37;100.00;102141.56;10457052;28;20540;-78
2021/09/06 00:36:57;;;;;;;14.13;11.10;;;;;;;10.43;100.00;102137.50;10455435;28;20395;-78
2021/09/06 00:41:59;;;;;;;14.60;11.50;;;;;;;10.38;100.00;102132.97;10457243;28;20055;-79
2021/09/06 00:47:01;;;;;;;16.23;10.98;;;;;;;10.25;100.00;102135.13;10456734;28;20057;-79
2021/09/06 00:52:02;;;;;;;16.17;11.85;;;;;;;10.31;100.00;102135.34;10455741;28;20067;-78
2021/09/06 00:57:04;;;;;;;15.30;12.15;;;;;;;10.31;100.00;102135.34;10456597;28;20477;-78
2021/09/06 01:02:06;;;;;;;16.38;11.00;;;;;;;10.19;100.00;102129.69;10455250;28;20456;-80
2021/09/06 01:07:09;;;;;;;15.82;11.48;;;;;;;10.22;100.00;102135.00;10458775;28;20037;-78
2021/09/06 01:12:11;;;;;;;17.00;12.43;;;;;;;10.07;100.00;102137.88;10454462;28;20091;-78
2021/09/06 01:17:13;;;;;;;20.52;12.07;;;;;;;10.03;100.00;102132.53;10455323;28;20394;-78
2021/09/06 01:22:15;;;;;;;18.10;11.77;;;;;;;10.00;100.00;102135.00;10455174;28;20420;-78
2021/09/06 01:27:18;;;;;;;18.40;11.52;;;;;;;9.98;100.00;102142.72;10442793;28;20512;-78
2021/09/06 01:32:22;;;;;;;15.15;11.73;;;;;;;9.86;100.00;102141.34;10454544;28;20064;-78
2021/09/06 01:37:24;;;;;;;14.48;11.60;;;;;;;9.81;100.00;102139.50;10453007;28;20068;-78
2021/09/06 01:42:25;;;;;;;15.75;10.93;;;;;;;9.81;100.00;102148.91;10453765;28;20382;-78
2021/09/06 01:47:28;;;;;;;15.27;11.57;;;;;;;9.79;100.00;102141.09;10453442;28;20049;-78
2021/09/06 01:52:31;;;;;;;17.92;12.32;;;;;;;9.86;100.00;102134.47;10453693;28;20056;-79
2021/09/06 01:57:32;;;;;;;14.55;11.93;;;;;;;9.80;100.00;102134.25;10453195;28;20041;-79
2021/09/06 02:02:34;;;;;;;17.48;12.63;;;;;;;9.84;100.00;102136.13;10453596;28;20044;-79
2021/09/06 02:07:36;;;;;;;20.65;13.60;;;;;;;9.81;100.00;102141.16;10454035;28;20045;-79
2021/09/06 02:12:38;;;;;;;21.50;14.75;;;;;;;9.84;100.00;102136.13;10454281;28;20068;-79
2021/09/06 02:17:39;;;;;;;18.95;13.27;;;;;;;9.73;100.00;102140.00;10452697;28;20464;-79
2021/09/06 02:22:41;;;;;;;15.00;11.32;;;;;;;9.61;100.00;102130.06;10453347;28;20464;-79
2021/09/06 02:27:42;;;;;;;17.15;11.38;;;;;;;9.57;100.00;102141.09;10454350;28;20059;-78
2021/09/06 02:32:44;;;;;;;17.88;12.07;;;;;;;9.46;100.00;102143.22;10455471;28;20053;-79
2021/09/06 02:37:46;;;;;;;19.83;13.38;;;;;;;9.48;100.00;102144.19;10460020;28;20048;-78
2021/09/06 02:42:48;;;;;;;19.00;13.43;;;;;;;9.51;100.00;102138.25;10459928;28;20050;-79
2021/09/06 02:47:50;;;;;;;19.45;12.98;;;;;;;9.46;100.00;102144.94;10457644;28;20053;-78
2021/09/06 02:52:53;;;;;;;20.45;13.38;;;;;;;9.46;100.00;102132.03;10460633;28;20065;-78
2021/09/06 02:57:54;;;;;;;19.60;13.23;;;;;;;9.51;100.00;102136.56;10462671;28;20045;-79
2021/09/06 03:02:56;;;;;;;20.15;12.77;;;;;;;9.45;100.00;102133.72;10460084;28;20060;-79
2021/09/06 03:07:58;;;;;;;21.08;13.65;;;;;;;9.54;100.00;102135.81;10460256;28;20456;-79
2021/09/06 03:13:00;;;;;;;18.20;12.45;;;;;;;9.40;100.00;102140.41;10460580;28;20044;-78
2021/09/06 03:18:02;;;;;;;15.82;11.20;;;;;;;9.32;100.00;102130.59;10463005;28;20045;-79
2021/09/06 03:23:03;;;;;;;14.90;10.43;;;;;;;9.12;100.00;102129.78;10459173;28;20059;-79
2021/09/06 03:28:05;;;;;;;17.85;11.57;;;;;;;9.13;100.00;102121.19;10448619;28;20124;-79
2021/09/06 03:33:08;;;;;;;17.08;11.20;;;;;;;9.04;100.00;102134.63;10458255;28;20053;-80
2021/09/06 03:38:13;;;;;;;18.02;11.45;;;;;;;9.05;100.00;102127.75;10459002;28;20474;-79
2021/09/06 03:43:15;;;;;;;18.27;11.95;;;;;;;9.12;100.00;102130.66;10457236;28;20061;-80
2021/09/06 03:48:18;;;;;;;17.50;11.63;;;;;;;9.02;100.00;102131.09;10458255;28;20057;-80
2021/09/06 03:53:20;;;;;;;16.65;11.88;;;;;;;8.98;100.00;102126.63;10457577;28;20070;-79
2021/09/06 03:58:21;;;;;;;15.43;11.27;;;;;;;8.89;100.00;102114.19;10457456;28;20056;-79
2021/09/06 04:03:23;;;;;;;15.70;11.07;;;;;;;8.93;100.00;102128.13;10458393;28;20088;-79
2021/09/06 04:08:25;;;;;;;20.58;12.32;;;;;;;8.95;100.00;102124.78;10457204;28;20049;-80
2021/09/06 04:13:27;;;;;;;16.23;11.40;;;;;;;8.96;100.00;102120.50;10457950;28;20056;-80
2021/09/06 04:18:30;;;;;;;17.10;11.93;;;;;;;8.88;100.00;102124.47;10463966;28;20404;-80
2021/09/06 04:23:32;;;;;;;14.93;11.27;;;;;;;8.87;100.00;102131.34;10457245;28;20051;-80
2021/09/06 04:28:34;;;;;;;18.75;10.18;;;;;;;8.72;100.00;102136.69;10454670;28;20041;-80
2021/09/06 04:33:36;;;;;;;16.42;11.07;;;;;;;8.61;100.00;102140.53;10455966;28;20131;-80
2021/09/06 04:38:37;;;;;;;14.57;10.30;;;;;;;8.74;100.00;102152.28;10454880;28;20119;-80
2021/09/06 04:43:39;;;;;;;20.77;11.90;;;;;;;8.69;100.00;102149.50;10453013;28;20049;-79
2021/09/06 04:48:40;;;;;;;15.07;11.55;;;;;;;8.65;100.00;102152.75;10452640;28;20045;-80
2021/09/06 04:53:42;;;;;;;16.33;10.90;;;;;;;8.69;100.00;102164.09;10455057;28;20417;-79
2021/09/06 04:58:44;;;;;;;15.75;11.15;;;;;;;8.65;100.00;102163.06;10456771;28;20045;-79
2021/09/06 05:03:45;;;;;;;15.50;11.32;;;;;;;8.58;100.00;102165.31;10459703;28;20057;-79
2021/09/06 05:08:47;;;;;;;17.50;11.25;;;;;;;8.68;100.00;102170.06;10457943;28;20053;-79
2021/09/06 05:13:49;;;;;;;17.02;11.13;;;;;;;8.63;100.00;102171.56;10458877;28;20048;-80
2021/09/06 05:18:51;;;;;;;16.33;11.25;;;;;;;8.71;100.00;102172.75;10456327;28;20048;-80
2021/09/06 05:23:52;;;;;;;15.25;11.02;;;;;;;8.72;100.00;102182.25;10456026;28;20135;-80
2021/09/06 05:28:55;;;;;;;18.17;11.85;;;;;;;8.77;100.00;102184.22;10457051;28;20056;-77
2021/09/06 05:33:58;;;;;;;15.55;10.82;;;;;;;8.79;100.00;102181.72;10455639;28;20057;-78
2021/09/06 05:39:00;;;;;;;12.90;9.82;;;;;;;8.89;100.00;102185.59;10456211;28;20052;-79
2021/09/06 05:44:05;;;;;;;12.05;8.63;;;;;;;8.96;100.00;102190.19;10456743;28;20521;-79
2021/09/06 05:49:06;;;;;;;15.07;9.18;;;;;;;9.06;100.00;102194.06;10454863;28;20055;-79
2021/09/06 05:54:08;;;;;;;11.57;8.13;;;;;;;9.14;100.00;102201.31;10455271;28;20091;-78
2021/09/06 05:59:10;;;;;;;15.45;9.40;;;;;;;9.35;100.00;102203.03;10455300;28;20052;-79
2021/09/06 06:04:11;;;;;;;15.95;10.90;;;;;;;9.60;100.00;102213.56;10454480;28;20040;-79
2021/09/06 06:09:13;;;;;;;14.13;9.35;;;;;;;9.86;100.00;102229.22;10461397;28;20555;-79
2021/09/06 06:14:15;;;;;;;17.17;10.90;;;;;;;10.19;100.00;102230.56;10460274;28;20079;-81
2021/09/06 06:19:16;;;;;;;20.05;14.13;;;;;;;10.40;100.00;102227.06;10461229;28;20100;-80
2021/09/06 06:24:18;;;;;;;23.00;15.73;;;;;;;10.77;100.00;102234.47;10457640;28;20048;-79
2021/09/06 06:29:19;;;;;;;26.15;16.58;;;;;;;10.99;100.00;102233.53;10443372;28;20057;-79
2021/09/06 06:34:21;;;;;;;41.83;25.35;;;;;;;11.62;100.00;102221.03;10456438;28;20049;-79
2021/09/06 06:39:23;;;;;;;38.10;23.42;;;;;;;11.69;100.00;102223.00;10460390;28;20440;-78
2021/09/06 06:44:24;;;;;;;44.58;26.80;;;;;;;11.95;100.00;102221.25;10460103;28;20048;-78
2021/09/06 06:49:26;;;;;;;44.60;27.00;;;;;;;12.33;100.00;102225.03;10460541;28;20501;-79
2021/09/06 06:54:31;;;;;;;42.03;26.23;;;;;;;12.66;100.00;102222.56;10460310;28;20417;-79
2021/09/06 06:59:33;;;;;;;38.22;22.42;;;;;;;13.12;100.00;102225.53;10460560;28;20528;-78
2021/09/06 07:04:35;;;;;;;37.10;24.05;;;;;;;13.30;100.00;102231.25;10459548;28;20045;-78
2021/09/06 07:09:36;;;;;;;39.70;24.23;;;;;;;13.43;100.00;102237.63;10459967;28;20061;-79
2021/09/06 07:14:38;;;;;;;34.75;21.42;;;;;;;13.84;99.81;102237.78;10458953;28;20144;-78
2021/09/06 07:19:41;;;;;;;33.50;22.23;;;;;;;14.02;98.70;102246.91;10464085;28;20107;-78
2021/09/06 07:24:42;;;;;;;38.97;24.05;;;;;;;14.43;100.00;102254.75;10458860;28;20055;-78
2021/09/06 07:29:44;;;;;;;34.70;22.35;;;;;;;15.01;96.47;102255.97;10445259;28;20055;-78
2021/09/06 07:34:46;;;;;;;34.65;24.30;;;;;;;15.00;96.01;102256.84;10457230;28;20049;-78
2021/09/06 07:39:48;;;;;;;36.75;23.20;;;;;;;15.34;93.10;102255.75;10459492;28;20041;-77
2021/09/06 07:44:50;;;;;;;36.75;22.65;;;;;;;15.55;93.60;102270.91;10458180;28;20057;-78
2021/09/06 07:49:52;;;;;;;28.38;20.63;;;;;;;16.31;89.37;102273.88;10444621;28;20582;-79
2021/09/06 07:54:53;;;;;;;29.63;20.45;;;;;;;15.91;92.36;102269.78;10457817;28;20045;-79
2021/09/06 07:59:55;;;;;;;31.75;20.83;;;;;;;16.41;91.20;102272.25;10458477;28;20054;-79
2021/09/06 08:05:04;;;;;;;27.75;19.02;;;;;;;16.79;92.12;102274.50;10457281;28;20067;-79
2021/09/06 08:10:06;;;;;;;26.20;18.45;;;;;;;17.48;86.97;102277.03;10457254;28;20486;-79
2021/09/06 08:15:10;;;;;;;26.52;17.42;;;;;;;17.32;85.73;102271.63;10456720;28;20051;-81
2021/09/06 08:20:16;;;;;;;22.77;16.63;;;;;;;17.72;85.07;102275.53;10461919;28;20095;-80
2021/09/06 08:25:17;;;;;;;24.83;16.43;;;;;;;17.44;84.38;102279.59;10457463;28;20053;-80
2021/09/06 08:30:19;;;;;;;22.55;15.25;;;;;;;17.97;82.83;102276.59;10456524;28;20084;-79
2021/09/06 08:35:21;;;;;;;19.67;15.27;;;;;;;18.23;83.00;102284.66;10455689;28;20055;-80
2021/09/06 08:40:23;;;;;;;17.75;13.15;;;;;;;18.45;80.50;102283.03;10455974;28;20056;-81
2021/09/06 08:45:25;;;;;;;19.48;13.70;;;;;;;18.28;80.20;102296.03;10454765;28;20053;-80
2021/09/06 08:50:27;;;;;;;21.05;13.75;;;;;;;19.16;78.21;102294.69;10454883;28;20076;-81
2021/09/06 08:55:29;;;;;;;15.75;12.27;;;;;;;18.68;76.47;102296.28;10455037;28;20045;-81
2021/09/06 09:00:31;;;;;;;13.60;10.55;;;;;;;18.71;72.48;102293.66;10452866;28;20140;-81
2021/09/06 09:05:33;;;;;;;15.18;10.00;;;;;;;18.68;72.88;102301.53;10454307;28;20052;-81
2021/09/06 09:10:38;;;;;;;16.50;11.57;;;;;;;18.76;73.60;102295.44;10455705;28;20524;-82
2021/09/06 09:15:50;;;;;;;16.80;10.88;;;;;;;18.93;71.98;102298.13;10454529;28;20421;-82
2021/09/06 09:21:18;;;;;;;12.60;9.52;;;;;;;19.03;71.42;102294.66;10460691;28;20583;-81
2021/09/06 09:26:20;;;;;;;11.75;9.20;;;;;;;19.35;69.78;102298.25;10452506;28;20565;-82
2021/09/06 09:31:22;;;;;;;11.70;9.18;;;;;;;19.39;66.73;102310.50;10454921;28;20049;-82
2021/09/06 09:36:33;;;;;;;14.82;10.32;;;;;;;19.79;66.97;102311.44;10453747;28;20525;-80
2021/09/06 09:41:36;;;;;;;11.03;8.30;;;;;;;19.80;64.97;102306.22;10453472;28;20137;-81
2021/09/06 09:46:38;;;;;;;9.70;8.13;;;;;;;19.93;62.05;102309.72;10440584;28;20129;-80
2021/09/06 09:51:40;;;;;;;11.73;9.35;;;;;;;20.03;64.18;102298.34;10453990;28;20404;-82
2021/09/06 09:56:44;;;;;;;12.38;9.93;;;;;;;20.85;63.81;102294.63;10456625;28;20045;-82
2021/09/06 10:01:56;;;;;;;13.55;9.77;;;;;;;20.94;63.61;102290.22;10454497;28;20472;-83
2021/09/06 10:07:00;;;;;;;11.57;9.68;;;;;;;21.61;59.49;102293.34;10453374;28;20543;-82
2021/09/06 10:12:06;;;;;;;13.63;9.75;;;;;;;21.83;58.73;102283.47;10455459;28;20413;-82
2021/09/06 10:17:08;;;;;;;9.65;7.82;;;;;;;22.91;55.94;102288.50;10456426;28;20049;-81
2021/09/06 10:22:20;;;;;;;7.30;6.57;;;;;;;22.46;52.72;102288.13;10453535;28;20459;-83
2021/09/06 10:27:22;;;;;;;9.35;6.60;;;;;;;22.73;50.28;102281.66;10460850;28;20051;-81
2021/09/06 10:32:34;;;;;;;9.55;7.18;;;;;;;23.45;48.75;102273.63;10454207;28;20140;-81
2021/09/06 10:37:37;;;;;;;7.90;6.47;;;;;;;23.56;45.99;102264.69;10452044;28;20076;-82
2021/09/06 10:42:56;;;;;;;8.25;6.80;;;;;;;23.82;47.11;102265.13;10455582;28;20144;-82
2021/09/06 10:48:00;;;;;;;9.18;5.63;;;;;;;23.26;49.17;102273.06;10452610;28;20049;-83
2021/09/06 10:53:02;;;;;;;6.22;5.53;;;;;;;23.40;45.52;102262.28;10454232;28;20053;-82
2021/09/06 10:58:11;;;;;;;10.15;6.43;;;;;;;24.00;44.74;102266.59;10459891;28;20528;-82
2021/09/06 11:03:13;;;;;;;10.93;6.80;;;;;;;23.41;46.93;102265.78;10462182;28;20061;-81
2021/09/06 11:08:16;;;;;;;8.93;7.07;;;;;;;24.06;45.01;102259.41;10459499;28;20134;-82
2021/09/06 11:13:17;;;;;;;10.93;6.32;;;;;;;24.15;43.84;102258.34;10461701;28;20053;-82
2021/09/06 11:18:19;;;;;;;9.27;6.88;;;;;;;23.96;43.69;102259.59;10472428;28;20075;-82
2021/09/06 11:23:30;;;;;;;6.95;6.22;;;;;;;23.42;46.25;102257.81;10464150;28;20076;-83
2021/09/06 11:28:33;;;;;;;7.90;5.60;;;;;;;23.54;48.19;102255.00;10445610;28;20049;-83
2021/09/06 11:33:34;;;;;;;8.45;5.90;;;;;;;23.40;48.01;102259.63;10458854;28;20060;-83
2021/09/06 11:38:40;;;;;;;9.20;6.45;;;;;;;24.13;43.86;102251.34;10459211;28;20053;-82
2021/09/06 11:43:42;;;;;;;6.78;5.72;;;;;;;24.30;43.75;102247.47;10459329;28;20052;-82
2021/09/06 11:48:48;;;;;;;8.30;6.43;;;;;;;23.79;46.96;102244.03;10458143;28;20072;-80
2021/09/06 11:53:58;;;;;;;7.30;6.03;;;;;;;24.19;46.82;102248.59;10458029;28;20053;-82
2021/09/06 11:59:01;;;;;;;7.13;6.40;;;;;;;24.58;46.84;102245.19;10456203;28;20383;-82
2021/09/06 12:04:08;;;;;;;8.98;7.05;;;;;;;24.52;45.21;102245.31;10455185;28;20571;-82
2021/09/06 12:09:11;;;;;;;9.40;7.13;;;;;;;24.67;42.22;102251.16;10457228;28;20061;-83
2021/09/06 12:14:21;;;;;;;9.88;7.28;;;;;;;23.99;46.45;102251.59;10456414;28;20059;-82
2021/09/06 12:19:23;;;;;;;7.70;6.85;;;;;;;24.14;43.54;102238.09;10461383;28;20154;-82
2021/09/06 12:24:26;;;;;;;8.90;6.85;;;;;;;24.29;46.05;102240.44;10456574;28;20053;-85
2021/09/06 12:29:29;;;;;;;8.45;6.93;;;;;;;24.39;48.30;102238.50;10456092;28;20041;-84
2021/09/06 12:34:31;;;;;;;8.35;7.03;;;;;;;24.53;44.71;102227.66;10456463;28;20063;-88
2021/09/06 12:39:35;;;;;;;9.20;7.35;;;;;;;24.40;46.49;102231.47;10456094;28;20497;-89
2021/09/06 12:44:36;;;;;;;10.23;8.15;;;;;;;24.21;43.88;102234.41;10456068;28;20404;-87
2021/09/06 12:49:38;;;;;;;8.38;7.47;;;;;;;24.12;44.36;102237.25;10457166;28;20048;-85
2021/09/06 12:54:40;;;;;;;7.60;6.80;;;;;;;24.29;44.37;102235.16;10442710;28;20432;-86
2021/09/06 12:59:42;;;;;;;7.90;6.95;;;;;;;24.42;44.67;102227.88;10454880;28;20056;-86
2021/09/06 13:04:43;;;;;;;9.02;6.82;;;;;;;24.27;44.75;102228.13;10455890;28;20501;-86
2021/09/06 13:09:45;;;;;;;8.32;7.53;;;;;;;24.53;45.81;102217.94;10454795;28;20129;-86
2021/09/06 13:14:47;;;;;;;11.43;9.55;;;;;;;24.25;42.48;102211.44;10453875;28;20059;-86
2021/09/06 13:19:48;;;;;;;7.72;7.03;;;;;;;24.30;46.83;102215.72;10458336;28;20048;-87
2021/09/06 13:24:51;;;;;;;10.30;7.35;;;;;;;24.37;46.27;102207.69;10455097;28;20071;-86
2021/09/06 13:29:52;;;;;;;12.85;8.60;;;;;;;24.29;44.98;102207.84;10440589;28;20045;-86
2021/09/06 13:34:55;;;;;;;9.45;7.65;;;;;;;24.50;46.11;102211.81;10454249;28;20099;-88
2021/09/06 13:39:57;;;;;;;9.35;8.40;;;;;;;24.37;44.25;102216.50;10453525;28;20481;-86
2021/09/06 13:44:58;;;;;;;9.63;7.90;;;;;;;24.49;44.50;102205.66;10454088;28;20057;-87
2021/09/06 13:50:00;;;;;;;10.57;7.65;;;;;;;24.38;46.75;102222.66;10453542;28;20044;-87
2021/09/06 13:55:02;;;;;;;8.80;7.38;;;;;;;24.06;47.79;102217.09;10454039;28;20045;-87
2021/09/06 14:00:05;;;;;;;8.45;7.57;;;;;;;24.02;47.71;102214.53;10453370;28;20493;-83
2021/09/06 14:05:07;;;;;;;8.95;7.47;;;;;;;23.99;47.93;102215.44;10454893;28;20405;-87
2021/09/06 14:10:10;;;;;;;8.93;8.02;;;;;;;23.89;50.29;102216.53;10453624;28;20049;-83
2021/09/06 14:15:13;;;;;;;12.07;9.30;;;;;;;23.66;49.46;102216.09;10453159;28;20087;-84
2021/09/06 14:20:19;;;;;;;11.48;8.55;;;;;;;23.72;49.68;102219.50;10458794;28;20486;-85
2021/09/06 14:25:21;;;;;;;12.77;8.93;;;;;;;23.54;46.52;102217.13;10453783;28;20049;-85
2021/09/06 14:30:23;;;;;;;11.15;8.65;;;;;;;23.43;47.19;102225.25;10445891;28;20056;-83
2021/09/06 14:35:24;;;;;;;11.65;8.20;;;;;;;23.32;48.92;102221.91;10457211;28;20485;-82
2021/09/06 14:40:26;;;;;;;11.55;8.15;;;;;;;23.49;48.82;102219.00;10458460;28;20456;-85
2021/09/06 14:45:27;;;;;;;18.45;10.05;;;;;;;23.49;47.37;102208.41;10458158;28;20059;-84
2021/09/06 14:50:29;;;;;;;16.15;11.60;;;;;;;23.23;48.27;102216.75;10460529;28;20098;-84
2021/09/06 14:55:31;;;;;;;16.85;10.70;;;;;;;23.14;49.26;102209.84;10460299;28;20132;-84
2021/09/06 15:00:33;;;;;;;13.65;8.95;;;;;;;23.04;50.47;102208.25;10459986;28;20103;-83
2021/09/06 15:05:35;;;;;;;10.38;8.60;;;;;;;22.97;50.45;102203.94;10453971;28;20053;-83
2021/09/06 15:10:36;;;;;;;12.70;9.55;;;;;;;22.97;53.85;102215.41;10444395;28;20057;-84
2021/09/06 15:15:38;;;;;;;12.18;9.40;;;;;;;23.12;52.96;102213.41;10447908;28;20585;-82
2021/09/06 15:20:40;;;;;;;14.65;11.02;;;;;;;22.82;52.98;102212.06;10457585;28;20107;-83
2021/09/06 15:25:42;;;;;;;11.07;9.85;;;;;;;22.97;53.30;102212.75;10448727;28;20055;-83
2021/09/06 15:31:03;;;;;;;13.60;10.30;;;;;;;23.19;49.72;102200.06;10444668;28;20412;-83
2021/09/06 15:36:06;;;;;;;13.90;10.90;;;;;;;23.23;49.76;102193.00;10437440;28;20061;-83
2021/09/06 15:41:09;;;;;;;12.75;9.52;;;;;;;23.40;47.26;102188.31;10436108;28;20056;-82
2021/09/06 15:46:12;;;;;;;12.55;10.45;;;;;;;23.40;49.08;102198.88;10446317;28;20407;-84
2021/09/06 15:51:14;;;;;;;12.57;10.45;;;;;;;23.41;47.51;102184.75;10449500;28;20098;-83
2021/09/06 15:56:17;;;;;;;14.30;10.60;;;;;;;23.33;48.83;102170.81;10451797;28;20084;-83
2021/09/06 16:01:19;;;;;;;16.25;10.45;;;;;;;23.40;48.89;102180.38;10456520;28;20080;-83
2021/09/06 16:06:24;;;;;;;14.15;10.18;;;;;;;23.30;50.98;102180.56;10457231;28;20128;-83
2021/09/06 16:11:26;;;;;;;12.10;9.07;;;;;;;23.23;55.38;102185.94;10444247;28;20123;-85
2021/09/06 16:16:27;;;;;;;12.50;10.32;;;;;;;23.21;52.03;102177.19;10448783;28;20052;-84
2021/09/06 16:21:43;;;;;;;12.15;9.23;;;;;;;23.34;52.54;102164.63;10451782;28;20076;-83
2021/09/06 16:26:44;;;;;;;14.75;10.48;;;;;;;23.15;53.38;102165.84;10456445;28;20059;-83
2021/09/06 16:31:46;;;;;;;14.00;9.07;;;;;;;23.21;53.55;102160.47;10456126;28;20124;-84
2021/09/06 16:36:48;;;;;;;13.30;9.15;;;;;;;23.07;53.93;102160.66;10457142;28;20091;-83
2021/09/06 16:41:49;;;;;;;14.45;11.00;;;;;;;23.07;52.63;102150.09;10456053;28;20099;-83
2021/09/06 16:46:51;;;;;;;13.68;10.88;;;;;;;22.99;53.58;102152.88;10455727;28;20504;-83
2021/09/06 16:51:52;;;;;;;12.30;9.93;;;;;;;22.95;54.55;102151.19;10454192;28;20135;-83
2021/09/06 16:56:54;;;;;;;16.77;9.43;;;;;;;22.72;58.70;102162.03;10442535;28;20049;-83
2021/09/06 17:01:55;;;;;;;12.93;9.73;;;;;;;22.74;58.28;102164.66;10455796;28;20417;-84
2021/09/06 17:06:57;;;;;;;17.15;9.82;;;;;;;22.53;59.05;102176.41;10454824;28;20175;-84
2021/09/06 17:12:00;;;;;;;14.00;10.20;;;;;;;22.51;59.93;102172.88;10437243;28;20468;-82
2021/09/06 17:17:01;;;;;;;10.95;9.02;;;;;;;22.09;65.64;102174.28;10444807;28;20461;-84
2021/09/06 17:22:04;;;;;;;12.10;9.52;;;;;;;21.83;68.23;102188.59;10453392;28;20501;-85
2021/09/06 17:27:08;;;;;;;24.95;10.23;;;;;;;21.74;68.39;102201.88;10453310;28;20053;-83
2021/09/06 17:32:10;;;;;;;11.85;9.93;;;;;;;21.60;69.50;102196.72;10448013;28;20057;-79
2021/09/06 17:37:12;;;;;;;14.05;10.50;;;;;;;21.53;69.47;102208.22;10453184;28;20084;-77
2021/09/06 17:42:15;;;;;;;12.40;10.38;;;;;;;21.33;69.40;102203.13;10453919;28;20059;-77
2021/09/06 17:47:16;;;;;;;16.55;11.15;;;;;;;21.03;71.65;102198.03;10453522;28;20060;-84
2021/09/06 17:52:21;;;;;;;14.15;10.52;;;;;;;20.98;71.99;102200.69;10453376;28;20521;-84
2021/09/06 17:57:23;;;;;;;13.88;9.68;;;;;;;20.65;74.64;102199.16;10454257;28;20045;-79
2021/09/06 18:02:27;;;;;;;15.02;10.27;;;;;;;20.59;73.68;102196.53;10457128;28;20064;-76
2021/09/06 18:07:29;;;;;;;11.95;9.75;;;;;;;20.29;75.75;102206.28;10462517;28;20053;-76
2021/09/06 18:12:31;;;;;;;10.38;9.20;;;;;;;20.00;77.85;102216.00;10460962;28;20128;-75
2021/09/06 18:17:32;;;;;;;13.20;9.60;;;;;;;19.91;76.72;102206.41;10461880;28;20523;-73
2021/09/06 18:22:39;;;;;;;22.23;9.60;;;;;;;19.61;77.94;102201.16;10462968;28;20084;-76
2021/09/06 18:27:44;;;;;;;12.75;9.48;;;;;;;19.40;79.96;102213.41;10452986;28;20053;-77
2021/09/06 18:32:46;;;;;;;15.40;10.00;;;;;;;19.24;81.27;102215.13;10461622;28;20059;-76
2021/09/06 18:37:48;;;;;;;13.68;10.00;;;;;;;19.24;81.52;102219.50;10460155;28;20084;-76
2021/09/06 18:42:49;;;;;;;15.70;10.73;;;;;;;19.00;82.40;102217.69;10461986;28;20049;-76
2021/09/06 18:47:52;;;;;;;11.00;9.82;;;;;;;18.98;82.39;102215.09;10455305;28;20052;-76
2021/09/06 18:52:54;;;;;;;12.70;10.18;;;;;;;18.60;83.84;102235.91;10459697;28;20068;-76
2021/09/06 18:57:56;;;;;;;11.25;8.88;;;;;;;18.31;84.82;102242.75;10459848;28;20044;-77
2021/09/06 19:02:58;;;;;;;12.27;9.23;;;;;;;18.36;84.65;102241.91;10458485;28;20061;-76
2021/09/06 19:08:00;;;;;;;13.85;10.65;;;;;;;18.13;87.25;102233.06;10456912;28;20040;-76
2021/09/06 19:13:01;;;;;;;13.98;10.00;;;;;;;17.89;87.93;102244.25;10439333;28;20424;-76
2021/09/06 19:18:03;;;;;;;14.10;10.23;;;;;;;17.94;87.50;102243.41;10457222;28;20045;-76
2021/09/06 19:23:05;;;;;;;16.17;11.05;;;;;;;17.78;89.60;102252.00;10450906;28;20095;-77
2021/09/06 19:28:07;;;;;;;13.77;11.68;;;;;;;17.58;90.81;102259.66;10448803;28;20045;-77
2021/09/06 19:33:09;;;;;;;14.93;10.50;;;;;;;17.49;91.89;102251.75;10456753;28;20045;-76
2021/09/06 19:38:10;;;;;;;17.10;11.35;;;;;;;17.47;91.59;102261.31;10458200;28;20076;-76
2021/09/06 19:43:12;;;;;;;13.23;10.48;;;;;;;17.31;93.16;102254.19;10458561;28;20063;-76
2021/09/06 19:48:14;;;;;;;15.38;11.60;;;;;;;17.31;93.13;102267.28;10456941;28;20082;-77
2021/09/06 19:53:16;;;;;;;14.93;10.25;;;;;;;17.12;94.16;102260.97;10457485;28;20469;-77
2021/09/06 19:58:19;;;;;;;13.05;10.05;;;;;;;17.02;93.62;102260.00;10455859;28;20045;-75
2021/09/06 20:03:20;;;;;;;13.25;11.55;;;;;;;16.99;93.86;102267.78;10456891;28;20049;-75
2021/09/06 20:08:23;;;;;;;14.27;11.15;;;;;;;16.84;94.44;102278.94;10457616;28;20485;-75
2021/09/06 20:13:25;;;;;;;14.27;11.05;;;;;;;16.87;93.97;102279.00;10457197;28;20120;-76
2021/09/06 20:18:27;;;;;;;12.95;10.85;;;;;;;16.59;95.05;102282.97;10456663;28;20060;-75
2021/09/06 20:23:49;;;;;;;16.58;11.75;;;;;;;16.46;95.65;102273.22;10446702;28;20053;-75
2021/09/06 20:28:54;;;;;;;14.80;12.73;;;;;;;16.49;95.13;102275.84;10456597;28;20147;-75
2021/09/06 20:33:56;;;;;;;14.05;10.77;;;;;;;16.48;95.04;102276.72;10450331;28;20849;-75
2021/09/06 20:38:57;;;;;;;14.63;11.75;;;;;;;16.29;96.18;102283.41;10452706;28;20114;-75
2021/09/06 20:44:01;;;;;;;19.63;11.95;;;;;;;16.17;96.07;102284.13;10454990;28;20448;-76
2021/09/06 20:49:04;;;;;;;14.60;11.30;;;;;;;16.03;96.92;102288.25;10446496;28;20513;-75
2021/09/06 20:54:06;;;;;;;14.25;11.30;;;;;;;15.88;97.29;102293.22;10453829;28;20103;-75
2021/09/06 20:59:08;;;;;;;15.07;11.38;;;;;;;15.83;97.07;102289.66;10454954;28;20057;-76
2021/09/06 21:04:10;;;;;;;17.23;12.98;;;;;;;15.72;97.22;102293.84;10455331;28;20095;-75
2021/09/06 21:09:12;;;;;;;17.67;11.52;;;;;;;15.57;97.88;102284.84;10456439;28;20044;-75
2021/09/06 21:14:14;;;;;;;15.35;11.88;;;;;;;15.60;97.39;102290.13;10454661;28;20055;-75
2021/09/06 21:19:15;;;;;;;17.98;12.98;;;;;;;15.42;98.46;102292.38;10455363;28;20049;-75
2021/09/06 21:24:16;;;;;;;15.05;11.15;;;;;;;15.37;98.96;102296.63;10454710;28;20448;-76
2021/09/06 21:29:18;;;;;;;21.02;12.18;;;;;;;15.42;98.29;102276.72;10455304;28;20057;-75
2021/09/06 21:34:20;;;;;;;14.15;11.88;;;;;;;15.34;98.11;102276.59;10454357;28;20053;-76
2021/09/06 21:39:21;;;;;;;14.48;11.98;;;;;;;15.19;99.03;102262.41;10453576;28;20063;-76
2021/09/06 21:44:23;;;;;;;14.43;11.73;;;;;;;15.20;98.24;102257.22;10454067;28;20045;-76
2021/09/06 21:49:24;;;;;;;19.55;12.65;;;;;;;15.09;98.63;102262.25;10454280;28;20402;-75
2021/09/06 21:54:26;;;;;;;22.15;12.27;;;;;;;14.89;99.51;102274.00;10455267;28;20114;-75
2021/09/06 21:59:28;;;;;;;17.13;11.88;;;;;;;14.89;99.50;102271.38;10453776;28;20409;-75
2021/09/06 22:04:29;;;;;;;18.30;12.02;;;;;;;14.80;100.00;102277.28;10455181;28;20401;-75
2021/09/06 22:09:31;;;;;;;15.05;12.27;;;;;;;14.78;99.79;102276.38;10453697;28;20044;-75
2021/09/06 22:14:32;;;;;;;14.25;11.05;;;;;;;14.68;99.01;102277.03;10453287;28;20111;-75
2021/09/06 22:19:34;;;;;;;15.90;11.95;;;;;;;14.55;99.86;102275.00;10456088;28;20052;-75
2021/09/06 22:24:36;;;;;;;17.08;12.20;;;;;;;14.44;100.00;102269.53;10452849;28;20139;-75
2021/09/06 22:29:38;;;;;;;20.90;12.25;;;;;;;14.46;100.00;102272.16;10454024;28;20048;-75
2021/09/06 22:34:39;;;;;;;18.13;12.05;;;;;;;14.36;99.86;102273.72;10453874;28;20060;-75
2021/09/06 22:39:41;;;;;;;16.30;11.70;;;;;;;14.36;100.00;102265.03;10452970;28;20053;-75
2021/09/06 22:44:42;;;;;;;18.50;12.32;;;;;;;14.22;100.00;102270.78;10454332;28;20049;-75